Time;durP1;ratioP1;P1;durP2;ratioP2;P2;SDS_P1;SDS_P2;PMS_P1;PMS_P2;Temp;Humidity;BMP_temperature;BMP_pressure;BME280_temperature;BME280_humidity;BME280_pressure;Samples;Min_cycle;Max_cycle;Signal;HPM_P1;HPM_P2
2022/11/05 00:11:14;;;;;;;25.47;12.97;;;10.40;1.00;;;;;;4934124;29;20221;-81
2022/11/05 00:16:43;;;;;;;25.63;13.13;;;10.40;1.00;;;;;;4934723;29;20649;-81
2022/11/05 00:19:13;;;;;;;29.07;13.10;;;10.40;1.00;;;;;;4934401;29;20197;-82
2022/11/05 00:27:09;;;;;;;25.63;11.73;;;10.40;13.80;;;;;;4934649;29;20593;-80
2022/11/05 00:29:37;;;;;;;28.30;13.33;;;10.40;25.30;;;;;;4934714;29;20226;-81
2022/11/05 00:32:04;;;;;;;35.53;14.97;;;10.40;43.20;;;;;;4934811;29;20607;-82
2022/11/05 00:34:33;;;;;;;31.00;14.40;;;10.40;53.10;;;;;;4934706;29;20548;-82
2022/11/05 00:37:00;;;;;;;31.70;13.47;;;10.40;72.60;;;;;;4934212;29;20715;-82
2022/11/05 00:39:26;;;;;;;30.43;13.90;;;10.40;80.10;;;;;;4934674;29;20198;-84
2022/11/05 00:50:05;;;;;;;37.90;16.10;;;10.40;99.90;;;;;;4937491;29;20630;-83
2022/11/05 00:55:13;;;;;;;32.63;13.73;;;10.50;99.90;;;;;;4925560;29;20680;-81
2022/11/05 00:57:40;;;;;;;31.80;14.87;;;10.50;99.90;;;;;;4937543;29;20223;-83
2022/11/05 01:00:09;;;;;;;31.07;13.50;;;10.50;99.90;;;;;;4938036;29;20211;-81
2022/11/05 01:02:36;;;;;;;25.70;12.40;;;10.50;99.90;;;;;;4937814;29;20202;-83
2022/11/05 01:05:05;;;;;;;28.53;13.33;;;10.50;99.90;;;;;;4937715;29;20204;-82
2022/11/05 01:07:32;;;;;;;27.13;12.03;;;10.50;99.90;;;;;;4937400;29;20687;-82
2022/11/05 01:09:59;;;;;;;26.57;12.73;;;10.50;99.90;;;;;;4937244;29;20218;-82
2022/11/05 01:12:26;;;;;;;30.80;13.97;;;10.50;99.90;;;;;;4937054;29;20197;-81
2022/11/05 01:14:53;;;;;;;30.77;13.30;;;10.50;99.90;;;;;;4937573;29;20278;-80
2022/11/05 01:17:20;;;;;;;27.90;13.07;;;10.60;99.90;;;;;;4937205;29;20197;-82
2022/11/05 01:19:47;;;;;;;24.23;12.57;;;10.60;99.90;;;;;;4937137;29;20200;-80
2022/11/05 01:22:15;;;;;;;31.40;18.53;;;10.50;99.90;;;;;;4937407;29;20663;-82
2022/11/05 01:24:42;;;;;;;30.00;15.63;;;10.60;99.90;;;;;;4937337;29;20205;-80
2022/11/05 01:27:09;;;;;;;33.07;16.77;;;10.60;99.90;;;;;;4937234;29;20615;-80
2022/11/05 01:29:36;;;;;;;31.30;15.40;;;10.60;99.90;;;;;;4937196;29;20214;-82
2022/11/05 01:32:03;;;;;;;32.27;15.67;;;10.60;99.90;;;;;;4937266;29;20207;-82
2022/11/05 01:34:30;;;;;;;33.07;15.37;;;10.60;99.90;;;;;;4936881;29;20206;-81
2022/11/05 01:36:57;;;;;;;35.37;16.07;;;10.60;99.90;;;;;;4936856;29;20232;-83
2022/11/05 01:39:26;;;;;;;38.57;17.27;;;10.60;99.90;;;;;;4936840;29;20195;-83
2022/11/05 01:41:53;;;;;;;34.90;16.90;;;10.60;99.90;;;;;;4936761;29;20678;-83
2022/11/05 01:44:52;;;;;;;35.73;16.80;;;10.60;99.90;;;;;;4936971;29;20202;-81
2022/11/05 01:47:27;;;;;;;29.67;15.03;;;10.60;99.90;;;;;;4936889;29;20186;-81
2022/11/05 01:49:55;;;;;;;33.27;16.47;;;10.60;99.90;;;;;;4936057;29;20209;-81
2022/11/05 01:52:25;;;;;;;43.80;17.83;;;10.60;99.90;;;;;;4936514;29;20198;-81
2022/11/05 01:54:53;;;;;;;42.80;18.47;;;10.60;99.90;;;;;;4935899;29;20207;-81
2022/11/05 01:57:21;;;;;;;45.50;18.27;;;10.60;99.90;;;;;;4936209;29;20653;-80
2022/11/05 01:59:51;;;;;;;49.23;18.83;;;10.60;99.90;;;;;;4936468;29;20201;-80
2022/11/05 02:02:19;;;;;;;56.73;20.83;;;10.60;99.90;;;;;;4936577;29;20189;-81
2022/11/05 02:04:52;;;;;;;59.27;20.27;;;10.60;99.90;;;;;;4936275;29;20194;-83
2022/11/05 02:07:20;;;;;;;53.23;20.97;;;10.70;99.90;;;;;;4936275;29;20546;-82
2022/11/05 02:09:52;;;;;;;52.27;19.90;;;10.60;99.90;;;;;;4936046;29;20222;-81
2022/11/05 02:12:22;;;;;;;46.03;18.27;;;10.60;99.90;;;;;;4936545;29;20232;-83
2022/11/05 02:14:49;;;;;;;46.00;17.77;;;10.60;99.90;;;;;;4936171;29;20205;-81
2022/11/05 02:17:24;;;;;;;50.87;19.43;;;10.60;99.90;;;;;;4936381;29;20261;-81
2022/11/05 02:20:09;;;;;;;51.00;19.60;;;10.60;99.90;;;;;;4936134;29;20194;-82
2022/11/05 02:23:04;;;;;;;41.63;16.00;;;10.50;99.90;;;;;;4936117;29;20286;-81
2022/11/05 02:26:03;;;;;;;47.87;18.00;;;10.50;99.90;;;;;;4936220;29;20203;-79
2022/11/05 02:28:51;;;;;;;46.40;17.03;;;10.60;99.90;;;;;;4933567;28;20688;-83
2022/11/05 02:31:28;;;;;;;42.53;14.53;;;10.60;99.90;;;;;;4936097;29;20207;-81
2022/11/05 02:34:01;;;;;;;28.83;12.87;;;10.60;99.90;;;;;;4935851;29;20181;-81
2022/11/05 02:36:38;;;;;;;25.77;12.17;;;10.60;99.90;;;;;;4935166;29;20705;-81
2022/11/05 02:39:14;;;;;;;32.63;14.37;;;10.60;99.90;;;;;;4935138;29;20216;-83
2022/11/05 02:41:48;;;;;;;31.10;13.57;;;10.60;99.90;;;;;;4935142;29;20192;-82
2022/11/05 02:44:24;;;;;;;18.97;9.60;;;10.60;99.90;;;;;;4935173;29;20254;-82
2022/11/05 02:46:59;;;;;;;21.07;10.90;;;10.60;99.90;;;;;;4934694;29;20238;-80
2022/11/05 02:49:38;;;;;;;21.57;10.47;;;10.60;99.90;;;;;;4934849;29;20716;-81
2022/11/05 02:52:14;;;;;;;24.70;11.33;;;10.60;99.90;;;;;;4935153;29;20193;-81
2022/11/05 02:54:44;;;;;;;25.13;12.13;;;10.50;99.90;;;;;;4934459;29;20250;-81
2022/11/05 02:57:11;;;;;;;24.33;12.47;;;10.50;99.90;;;;;;4934744;29;20196;-83
2022/11/05 02:59:38;;;;;;;23.30;13.20;;;10.50;99.90;;;;;;4934890;29;20262;-82
2022/11/05 03:02:07;;;;;;;24.50;12.70;;;10.50;99.90;;;;;;4934675;29;20203;-82
2022/11/05 03:04:34;;;;;;;20.40;11.40;;;10.50;99.90;;;;;;4934597;29;20199;-81
2022/11/05 03:07:21;;;;;;;24.77;13.10;;;10.50;99.90;;;;;;4934633;29;20198;-82
2022/11/05 03:10:09;;;;;;;27.73;12.73;;;10.40;99.90;;;;;;4933537;29;20330;-82
2022/11/05 03:12:44;;;;;;;26.50;12.70;;;10.40;99.90;;;;;;4934782;29;20629;-82
2022/11/05 03:15:22;;;;;;;27.20;12.10;;;10.40;99.90;;;;;;4934512;29;20182;-80
2022/11/05 03:18:01;;;;;;;28.83;13.27;;;10.30;99.90;;;;;;4934254;29;20198;-81
2022/11/05 03:20:35;;;;;;;30.13;12.93;;;10.30;99.90;;;;;;4934181;29;20228;-82
2022/11/05 03:23:09;;;;;;;26.67;13.13;;;10.30;99.90;;;;;;4934469;29;20187;-81
2022/11/05 03:25:41;;;;;;;32.50;15.20;;;10.30;99.90;;;;;;4934641;29;20271;-82
2022/11/05 03:28:10;;;;;;;29.77;13.30;;;10.30;99.90;;;;;;4934449;29;20547;-82
2022/11/05 03:30:39;;;;;;;30.53;13.67;;;10.30;99.90;;;;;;4934005;29;20229;-80
2022/11/05 03:33:13;;;;;;;29.37;14.73;;;10.30;99.90;;;;;;4934520;29;20266;-79
2022/11/05 03:35:46;;;;;;;28.40;12.63;;;10.30;99.90;;;;;;4934164;29;20199;-83
2022/11/05 03:38:19;;;;;;;28.57;13.90;;;10.30;99.90;;;;;;4894290;28;1181257;-81
2022/11/05 03:40:49;;;;;;;25.53;12.87;;;10.30;99.90;;;;;;4935497;29;20204;-81
2022/11/05 03:43:18;;;;;;;24.40;11.53;;;10.30;99.90;;;;;;4935123;29;20671;-82
2022/11/05 03:45:52;;;;;;;24.17;10.77;;;10.30;99.90;;;;;;4934906;29;20245;-83
2022/11/05 03:48:25;;;;;;;19.70;8.97;;;10.30;99.90;;;;;;4935362;29;20264;-81
2022/11/05 03:51:00;;;;;;;17.03;9.30;;;10.30;99.90;;;;;;4935067;29;20668;-81
2022/11/05 03:53:30;;;;;;;19.37;8.63;;;10.20;99.90;;;;;;4935115;29;20277;-80
2022/11/05 03:56:00;;;;;;;13.53;6.27;;;10.20;99.90;;;;;;4935492;29;20203;-81
2022/11/05 03:58:29;;;;;;;17.47;6.70;;;10.20;99.90;;;;;;4934195;29;20208;-83
2022/11/05 04:00:56;;;;;;;16.80;6.50;;;10.20;99.90;;;;;;4934954;29;20206;-81
2022/11/05 04:03:24;;;;;;;16.23;6.20;;;10.20;99.90;;;;;;4934676;29;20210;-82
2022/11/05 04:14:02;;;;;;;16.20;5.00;;;10.10;99.90;;;;;;4934683;29;20267;-80
2022/11/05 04:24:07;;;;;;;19.40;6.27;;;10.00;99.90;;;;;;4936085;29;20240;-81
2022/11/05 04:24:46;;;;;;;14.87;5.53;;;10.00;99.90;;;;;;4938280;29;20191;-81
2022/11/05 04:27:13;;;;;;;13.67;4.80;;;10.00;99.90;;;;;;4938129;29;20189;-82
2022/11/05 04:32:25;;;;;;;17.80;5.10;;;10.00;99.90;;;;;;4937937;29;20196;-83
2022/11/05 04:34:53;;;;;;;13.53;4.70;;;10.00;99.90;;;;;;4938244;29;20193;-83
2022/11/05 04:37:20;;;;;;;13.47;5.43;;;10.00;99.90;;;;;;4938000;29;20235;-81
2022/11/05 04:39:47;;;;;;;15.47;5.23;;;10.00;99.90;;;;;;4937986;29;20195;-81
2022/11/05 04:42:14;;;;;;;79.60;43.83;;;10.00;99.90;;;;;;4938037;29;20214;-80
2022/11/05 04:44:41;;;;;;;47.17;24.50;;;10.00;99.90;;;;;;4937883;29;20708;-83
2022/11/05 04:47:08;;;;;;;36.87;22.87;;;10.00;99.90;;;;;;4937840;29;20200;-81
2022/11/05 04:49:35;;;;;;;22.07;10.40;;;10.00;99.90;;;;;;4938039;29;20210;-81
2022/11/05 04:52:04;;;;;;;22.43;9.03;;;10.10;99.90;;;;;;4937599;29;20224;-82
2022/11/05 04:54:31;;;;;;;22.07;9.00;;;10.10;99.90;;;;;;4937713;29;20201;-81
2022/11/05 04:56:58;;;;;;;22.57;9.33;;;10.10;99.90;;;;;;4937621;29;20698;-80
2022/11/05 04:59:25;;;;;;;23.20;8.87;;;10.10;99.90;;;;;;4937808;29;20211;-80
2022/11/05 05:01:52;;;;;;;21.27;8.13;;;10.10;99.90;;;;;;4938061;29;20718;-81
2022/11/05 05:04:19;;;;;;;17.47;7.60;;;10.10;99.90;;;;;;4937775;29;20208;-81
2022/11/05 05:06:46;;;;;;;16.50;6.97;;;10.20;99.90;;;;;;4937210;29;20202;-81
2022/11/05 05:09:15;;;;;;;17.70;6.87;;;10.20;99.90;;;;;;4937394;29;20197;-82
2022/11/05 05:11:42;;;;;;;17.13;6.00;;;10.20;99.90;;;;;;4937280;29;20227;-81
2022/11/05 05:14:09;;;;;;;16.97;7.30;;;10.20;99.90;;;;;;4937419;29;20204;-83
2022/11/05 05:16:36;;;;;;;20.83;12.30;;;10.20;99.90;;;;;;4937278;29;20254;-80
2022/11/05 05:19:03;;;;;;;12.57;6.60;;;10.20;99.90;;;;;;4937555;29;20257;-81
2022/11/05 05:21:38;;;;;;;15.40;6.50;;;10.10;99.90;;;;;;4937268;29;20244;-81
2022/11/05 05:24:07;;;;;;;15.73;6.30;;;10.10;99.90;;;;;;4937476;29;20192;-83
2022/11/05 05:26:36;;;;;;;12.93;5.23;;;10.10;99.90;;;;;;4937083;29;20653;-80
2022/11/05 05:29:04;;;;;;;18.83;7.53;;;10.00;99.90;;;;;;4937328;29;20248;-82
2022/11/05 05:31:31;;;;;;;18.03;8.10;;;10.00;99.90;;;;;;4937204;29;20266;-80
2022/11/05 05:33:59;;;;;;;15.73;8.63;;;10.00;99.90;;;;;;4936836;29;20208;-82
2022/11/05 05:36:26;;;;;;;14.23;6.20;;;10.00;99.90;;;;;;4936658;29;20221;-81
2022/11/05 05:38:53;;;;;;;14.97;6.40;;;10.00;99.90;;;;;;4937450;29;20629;-81
2022/11/05 05:41:21;;;;;;;16.13;7.97;;;9.90;99.90;;;;;;4937384;29;20198;-80
2022/11/05 05:43:49;;;;;;;13.33;5.13;;;9.90;99.90;;;;;;4936764;29;20257;-84
2022/11/05 05:46:18;;;;;;;12.87;4.73;;;9.90;99.90;;;;;;4936845;29;20208;-81
2022/11/05 05:48:49;;;;;;;18.27;5.10;;;9.90;99.90;;;;;;4937002;29;20256;-80
2022/11/05 05:51:17;;;;;;;13.10;4.83;;;9.90;99.90;;;;;;4936941;29;20581;-82
2022/11/05 05:53:44;;;;;;;11.93;4.93;;;9.80;99.90;;;;;;4936522;29;20209;-80
2022/11/05 05:56:13;;;;;;;12.10;4.30;;;9.80;99.90;;;;;;4936523;29;20197;-81
2022/11/05 05:58:41;;;;;;;9.37;4.60;;;9.80;99.90;;;;;;4936748;29;20204;-82
2022/11/05 06:01:13;;;;;;;10.93;4.43;;;9.80;99.90;;;;;;4917713;29;20204;-82
2022/11/05 06:03:40;;;;;;;11.60;3.90;;;9.80;99.90;;;;;;4931153;29;20659;-81
2022/11/05 06:06:09;;;;;;;13.50;4.37;;;9.80;99.90;;;;;;4936291;29;20198;-81
2022/11/05 06:08:36;;;;;;;15.23;4.20;;;9.80;99.90;;;;;;4936097;29;20663;-82
2022/11/05 06:11:05;;;;;;;11.80;3.80;;;9.70;99.90;;;;;;4935865;29;20220;-79
2022/11/05 06:13:33;;;;;;;16.07;4.47;;;9.70;99.90;;;;;;4936204;29;20211;-83
2022/11/05 06:16:01;;;;;;;11.27;4.20;;;9.70;99.90;;;;;;4936464;29;20627;-82
2022/11/05 06:18:30;;;;;;;9.57;4.07;;;9.70;99.90;;;;;;4936162;29;20196;-81
2022/11/05 06:21:01;;;;;;;14.93;4.03;;;9.70;99.90;;;;;;4936276;29;20200;-83
2022/11/05 06:23:30;;;;;;;10.63;4.03;;;9.70;99.90;;;;;;4936330;29;20611;-80
2022/11/05 06:26:01;;;;;;;12.10;4.20;;;9.70;99.90;;;;;;4936513;29;20285;-82
2022/11/05 06:28:29;;;;;;;10.93;3.80;;;9.60;99.90;;;;;;4936181;29;20595;-82
2022/11/05 06:30:56;;;;;;;12.93;4.10;;;9.60;99.90;;;;;;4935901;29;20220;-80
2022/11/05 06:33:24;;;;;;;12.80;4.10;;;9.60;99.90;;;;;;4935559;29;20193;-81
2022/11/05 06:35:53;;;;;;;13.00;3.83;;;9.60;99.90;;;;;;4935876;29;20722;-81
2022/11/05 06:38:20;;;;;;;11.03;3.87;;;9.60;99.90;;;;;;4935634;29;20244;-82
2022/11/05 06:40:47;;;;;;;16.07;4.17;;;9.60;99.90;;;;;;4935656;29;20200;-80
2022/11/05 06:43:14;;;;;;;16.30;3.33;;;9.60;99.90;;;;;;4935439;29;20202;-80
2022/11/05 06:45:41;;;;;;;12.57;4.40;;;9.60;99.90;;;;;;4935494;29;20256;-80
2022/11/05 06:48:08;;;;;;;12.97;4.10;;;9.60;99.90;;;;;;4935548;29;20201;-83
2022/11/05 06:50:35;;;;;;;14.50;4.00;;;9.60;99.90;;;;;;4935364;29;20205;-79
2022/11/05 06:53:04;;;;;;;11.47;3.60;;;9.70;99.90;;;;;;4935796;29;20273;-79
2022/11/05 06:55:32;;;;;;;12.77;4.20;;;9.70;99.90;;;;;;4935449;29;20206;-82
2022/11/05 06:57:59;;;;;;;11.80;4.03;;;9.70;99.90;;;;;;4935778;29;20201;-80
2022/11/05 07:00:26;;;;;;;12.07;4.07;;;9.80;99.90;;;;;;4935907;29;20204;-82
2022/11/05 07:02:54;;;;;;;18.20;3.90;;;9.80;99.90;;;;;;4935125;29;20200;-82
2022/11/05 07:05:22;;;;;;;12.03;4.10;;;9.80;99.90;;;;;;4935415;29;20263;-82
2022/11/05 07:07:49;;;;;;;33.33;12.93;;;9.90;99.90;;;;;;4935344;29;20201;-81
2022/11/05 07:10:19;;;;;;;58.57;20.90;;;9.90;99.90;;;;;;4935000;29;20193;-83
2022/11/05 07:12:46;;;;;;;95.43;34.27;;;9.90;99.90;;;;;;4935413;29;20237;-79
2022/11/05 07:15:13;;;;;;;94.93;30.70;;;9.90;99.90;;;;;;4935195;29;20200;-83
2022/11/05 07:17:41;;;;;;;133.00;46.70;;;9.80;99.90;;;;;;4935392;29;20208;-80
2022/11/05 07:20:09;;;;;;;157.93;56.97;;;9.80;99.90;;;;;;4935126;29;20206;-80
2022/11/05 07:22:37;;;;;;;102.57;39.83;;;9.80;99.90;;;;;;4935121;29;20196;-81
2022/11/05 07:25:05;;;;;;;83.60;35.70;;;9.80;99.90;;;;;;4935050;29;20758;-82
2022/11/05 07:27:37;;;;;;;60.07;27.20;;;9.80;99.90;;;;;;4935005;29;20734;-80
2022/11/05 07:30:06;;;;;;;50.50;22.67;;;9.80;99.90;;;;;;4934467;29;20189;-80
2022/11/05 07:32:37;;;;;;;39.30;17.23;;;9.90;99.90;;;;;;4934720;29;20698;-80
2022/11/05 07:35:05;;;;;;;31.20;13.17;;;9.90;99.90;;;;;;4934998;29;20263;-79
2022/11/05 07:37:32;;;;;;;43.10;19.00;;;9.90;99.90;;;;;;4934463;29;20243;-79
2022/11/05 07:39:59;;;;;;;42.23;18.07;;;9.90;99.90;;;;;;4934833;29;20231;-80
2022/11/05 07:42:26;;;;;;;38.50;18.93;;;10.00;99.90;;;;;;4935068;29;20740;-80
2022/11/05 07:44:55;;;;;;;44.37;16.80;;;10.00;99.90;;;;;;4935152;29;20205;-80
2022/11/05 07:47:22;;;;;;;31.43;13.77;;;10.10;99.90;;;;;;4934510;29;20194;-81
2022/11/05 07:49:50;;;;;;;41.57;18.67;;;10.10;99.90;;;;;;4934749;29;20913;-81
2022/11/05 07:52:17;;;;;;;19.53;6.37;;;10.20;99.90;;;;;;4934499;29;20274;-80
2022/11/05 07:54:44;;;;;;;39.67;15.93;;;10.30;99.90;;;;;;4936856;29;20544;-80
2022/11/05 07:57:11;;;;;;;44.87;18.83;;;10.30;99.90;;;;;;4938992;29;20263;-82
2022/11/05 07:59:38;;;;;;;53.40;20.20;;;10.40;99.90;;;;;;4937823;29;20205;-80
2022/11/05 08:02:09;;;;;;;37.83;15.03;;;10.40;96.60;;;;;;4938231;29;20194;-80
2022/11/05 08:04:39;;;;;;;20.30;6.97;;;10.40;85.10;;;;;;4938452;29;20238;-80
2022/11/05 08:07:06;;;;;;;36.50;14.27;;;10.50;79.30;;;;;;4938144;29;20286;-82
2022/11/05 08:09:33;;;;;;;58.17;20.40;;;10.50;75.10;;;;;;4938417;29;20198;-82
2022/11/05 08:12:00;;;;;;;50.73;18.63;;;10.50;67.00;;;;;;4938175;29;20616;-84
2022/11/05 08:14:27;;;;;;;51.10;18.37;;;10.60;50.00;;;;;;4937514;29;20203;-79
2022/11/05 08:16:54;;;;;;;38.10;12.50;;;10.60;43.10;;;;;;4938502;29;20206;-80
2022/11/05 08:19:23;;;;;;;40.67;15.80;;;10.60;21.60;;;;;;4938600;29;20202;-80
2022/11/05 08:21:50;;;;;;;27.20;10.17;;;10.60;1.00;;;;;;4938045;29;20258;-80
2022/11/05 08:24:17;;;;;;;36.93;14.53;;;10.60;1.00;;;;;;4938490;29;20231;-82
2022/11/05 08:26:44;;;;;;;49.70;18.90;;;10.60;1.00;;;;;;4937991;29;20205;-80
2022/11/05 08:29:11;;;;;;;24.40;9.83;;;10.70;18.20;;;;;;4937802;29;20222;-79
2022/11/05 08:31:38;;;;;;;40.23;15.63;;;10.70;21.40;;;;;;4934950;29;20222;-81
2022/11/05 08:34:05;;;;;;;30.20;9.33;;;10.80;27.90;;;;;;4937173;29;20206;-82
2022/11/05 08:36:34;;;;;;;33.00;10.67;;;11.00;15.30;;;;;;4937797;29;20627;-80
2022/11/05 08:39:02;;;;;;;36.30;12.93;;;11.00;1.00;;;;;;4938222;29;20201;-82
2022/11/05 08:41:29;;;;;;;22.30;8.30;;;11.00;1.00;;;;;;4937719;29;20208;-80
2022/11/05 08:43:56;;;;;;;35.63;12.57;;;11.00;1.00;;;;;;4938201;29;20206;-81
2022/11/05 08:46:23;;;;;;;27.60;8.90;;;11.00;1.00;;;;;;4938103;29;20203;-80
2022/11/05 08:48:50;;;;;;;37.90;13.00;;;10.90;1.00;;;;;;4937590;29;20195;-80
2022/11/05 08:51:17;;;;;;;35.50;12.30;;;10.90;1.00;;;;;;4937734;29;20217;-82
2022/11/05 08:53:45;;;;;;;16.03;5.67;;;10.90;1.00;;;;;;4937971;29;20208;-80
2022/11/05 08:56:12;;;;;;;29.20;8.50;;;10.90;1.00;;;;;;4937886;29;20249;-80
2022/11/05 08:58:39;;;;;;;27.63;9.83;;;10.90;1.00;;;;;;4937376;29;20249;-85
2022/11/05 09:01:07;;;;;;;32.17;10.57;;;11.00;1.00;;;;;;4938010;29;20204;-80
2022/11/05 09:03:34;;;;;;;30.57;9.77;;;10.90;1.00;;;;;;4941370;29;20622;-83
2022/11/05 09:06:01;;;;;;;19.60;7.43;;;10.90;1.00;;;;;;4939470;28;20212;-82
2022/11/05 09:08:28;;;;;;;17.00;5.67;;;10.80;1.00;;;;;;4937185;29;20205;-83
2022/11/05 09:10:56;;;;;;;18.50;5.63;;;10.70;1.00;;;;;;4937321;29;20665;-81
2022/11/05 09:13:24;;;;;;;18.47;7.40;;;10.60;1.00;;;;;;4937128;29;20624;-82
2022/11/05 09:15:51;;;;;;;17.70;5.23;;;10.60;1.00;;;;;;4937391;29;20197;-81
2022/11/05 09:18:19;;;;;;;14.33;4.90;;;10.50;1.00;;;;;;4937476;29;20555;-80
2022/11/05 09:20:47;;;;;;;16.17;3.87;;;10.50;1.00;;;;;;4937092;29;20197;-83
2022/11/05 09:23:14;;;;;;;17.10;4.77;;;10.40;1.00;;;;;;4937259;29;20203;-87
2022/11/05 09:25:42;;;;;;;14.10;4.20;;;10.40;1.00;;;;;;4937301;29;20668;-86
2022/11/05 09:28:12;;;;;;;14.90;3.23;;;10.40;1.00;;;;;;4937222;29;20265;-83
2022/11/05 09:30:41;;;;;;;15.30;3.73;;;10.30;1.00;;;;;;4937503;29;20199;-85
2022/11/05 09:33:08;;;;;;;15.50;3.57;;;10.30;1.00;;;;;;4934906;29;20310;-83
2022/11/05 09:35:38;;;;;;;13.83;2.80;;;10.30;1.00;;;;;;4936460;29;20226;-85
2022/11/05 09:38:05;;;;;;;12.93;2.87;;;10.30;1.00;;;;;;4936941;29;20241;-81
2022/11/05 09:40:36;;;;;;;12.13;2.57;;;10.30;1.00;;;;;;4937435;29;20209;-85
2022/11/05 09:43:04;;;;;;;13.17;2.70;;;10.20;1.00;;;;;;4937297;29;20187;-81
2022/11/05 09:45:35;;;;;;;9.67;2.83;;;10.30;1.00;;;;;;4937281;29;20198;-83
2022/11/05 09:48:07;;;;;;;10.33;2.40;;;10.50;1.00;;;;;;4936597;29;20663;-80
2022/11/05 09:50:39;;;;;;;16.60;2.83;;;10.60;1.00;;;;;;4937074;29;20196;-84
2022/11/05 09:53:07;;;;;;;13.00;2.57;;;10.70;1.00;;;;;;4936468;29;20211;-84
2022/11/05 09:55:37;;;;;;;12.50;2.93;;;10.80;1.00;;;;;;4936735;29;20226;-87
2022/11/05 09:58:12;;;;;;;8.47;2.53;;;10.90;1.00;;;;;;4937227;29;20184;-81
2022/11/05 10:00:41;;;;;;;11.07;2.80;;;11.10;1.00;;;;;;4936971;29;20206;-82
2022/11/05 10:03:13;;;;;;;12.37;2.50;;;11.20;1.00;;;;;;4946416;29;20198;-83
2022/11/05 10:05:41;;;;;;;12.53;3.10;;;11.50;1.00;;;;;;4925797;29;20193;-80
2022/11/05 10:08:18;;;;;;;14.00;3.13;;;11.60;1.00;;;;;;4936189;29;20200;-83
2022/11/05 10:10:49;;;;;;;11.50;2.00;;;11.70;1.00;;;;;;4936175;29;20228;-84
2022/11/05 10:13:23;;;;;;;9.10;2.27;;;11.80;1.00;;;;;;4935972;29;20683;-78
2022/11/05 10:16:00;;;;;;;9.87;2.30;;;11.80;1.00;;;;;;4936177;29;20176;-78
2022/11/05 10:18:32;;;;;;;11.03;2.70;;;11.90;1.00;;;;;;4936285;29;20588;-81
2022/11/05 10:21:00;;;;;;;10.90;2.20;;;12.00;1.00;;;;;;4936055;29;20273;-80
2022/11/05 10:23:28;;;;;;;12.73;2.30;;;12.20;1.00;;;;;;4936390;29;20652;-83
2022/11/05 10:25:59;;;;;;;12.10;2.10;;;12.40;1.00;;;;;;4935884;29;20197;-82
2022/11/05 10:28:31;;;;;;;12.30;2.33;;;12.60;1.00;;;;;;4935926;29;20242;-83
2022/11/05 10:31:01;;;;;;;15.37;2.30;;;12.70;1.00;;;;;;4936374;29;20191;-76
2022/11/05 10:33:33;;;;;;;14.30;2.50;;;12.80;1.00;;;;;;4935259;29;20220;-79
2022/11/05 10:36:04;;;;;;;13.13;2.80;;;12.80;1.00;;;;;;4926785;29;20193;-81
2022/11/05 10:38:32;;;;;;;18.90;3.90;;;12.80;1.00;;;;;;4935934;29;20186;-78
2022/11/05 10:41:09;;;;;;;9.93;2.80;;;12.90;1.00;;;;;;4935710;29;20217;-78
2022/11/05 10:43:42;;;;;;;15.60;5.87;;;12.90;1.00;;;;;;4935995;29;20636;-79
2022/11/05 10:46:25;;;;;;;16.80;5.73;;;12.80;1.00;;;;;;4935999;29;20222;-83
2022/11/05 10:49:06;;;;;;;12.10;5.30;;;12.70;1.00;;;;;;4935339;29;20250;-79
2022/11/05 10:51:34;;;;;;;16.47;6.10;;;12.60;1.00;;;;;;4935561;29;20278;-78
2022/11/05 10:54:05;;;;;;;11.77;3.00;;;12.50;1.00;;;;;;4934502;29;20198;-79
2022/11/05 10:56:35;;;;;;;26.63;13.37;;;12.40;1.00;;;;;;4935662;29;20191;-81
2022/11/05 10:59:03;;;;;;;34.07;17.73;;;12.40;1.00;;;;;;4935449;29;20253;-83
2022/11/05 11:01:32;;;;;;;48.57;26.60;;;12.30;1.00;;;;;;4935337;29;20679;-79
2022/11/05 11:04:13;;;;;;;38.53;17.60;;;12.30;1.00;;;;;;4935331;29;20254;-82
2022/11/05 11:06:48;;;;;;;19.90;10.10;;;12.30;1.00;;;;;;4935066;29;20189;-79
2022/11/05 11:09:22;;;;;;;32.57;17.50;;;12.20;1.00;;;;;;4935431;29;20198;-79
2022/11/05 11:11:58;;;;;;;13.23;5.17;;;12.20;1.00;;;;;;4935511;29;20193;-79
2022/11/05 11:14:25;;;;;;;14.47;6.60;;;12.20;1.00;;;;;;4935534;29;20592;-79
2022/11/05 11:16:56;;;;;;;27.33;14.47;;;12.30;1.00;;;;;;4935507;29;20206;-81
2022/11/05 11:19:31;;;;;;;17.83;6.00;;;12.40;1.00;;;;;;4935508;29;20186;-81
2022/11/05 11:22:18;;;;;;;34.13;16.03;;;12.50;1.00;;;;;;4935166;29;20277;-83
2022/11/05 11:24:48;;;;;;;31.57;15.47;;;12.70;99.90;;;;;;4935157;29;20201;-80
2022/11/05 11:27:18;;;;;;;23.07;13.03;;;12.70;99.90;;;;;;4934993;29;20195;-79
2022/11/05 11:29:49;;;;;;;16.00;5.20;;;12.70;99.90;;;;;;4935355;29;20189;-84
2022/11/05 11:32:20;;;;;;;22.30;11.43;;;12.60;99.90;;;;;;4935365;29;20209;-80
2022/11/05 11:34:52;;;;;;;22.70;12.43;;;12.60;1.00;;;;;;4934824;29;20245;-79
2022/11/05 11:37:24;;;;;;;25.87;13.40;;;12.60;1.00;;;;;;4934751;29;20286;-82
2022/11/05 11:39:54;;;;;;;28.23;13.60;;;12.60;28.30;;;;;;4935320;29;20216;-79
2022/11/05 11:42:27;;;;;;;56.77;31.67;;;12.60;1.00;;;;;;4934913;29;20190;-81
2022/11/05 11:44:54;;;;;;;32.50;15.23;;;12.70;99.90;;;;;;4933869;29;20191;-81
2022/11/05 11:47:23;;;;;;;25.10;13.07;;;12.60;99.90;;;;;;4934315;29;20201;-80
2022/11/05 11:49:52;;;;;;;19.60;9.20;;;12.60;1.00;;;;;;4933926;29;20211;-80
2022/11/05 11:52:27;;;;;;;16.73;9.50;;;12.60;99.90;;;;;;4934420;29;20227;-81
2022/11/05 11:55:16;;;;;;;21.23;10.57;;;12.70;1.00;;;;;;4934616;29;20185;-80
2022/11/05 11:57:45;;;;;;;13.47;6.97;;;12.70;1.00;;;;;;4933530;29;20636;-80
2022/11/05 12:00:14;;;;;;;18.13;10.00;;;12.70;1.00;;;;;;4934387;29;20206;-81
2022/11/05 12:02:59;;;;;;;16.23;7.10;;;12.60;1.00;;;;;;4934761;29;20202;-82
2022/11/05 12:05:42;;;;;;;21.33;8.50;;;12.50;52.40;;;;;;4934887;29;20181;-81
2022/11/05 12:08:22;;;;;;;14.33;7.30;;;12.40;1.00;;;;;;4919610;29;20188;-81
2022/11/05 12:10:57;;;;;;;13.73;6.50;;;12.40;1.00;;;;;;4934542;29;20219;-81
2022/11/05 12:13:55;;;;;;;12.73;5.77;;;12.40;1.00;;;;;;4934715;29;20205;-81
2022/11/05 12:16:38;;;;;;;16.63;6.47;;;12.30;99.90;;;;;;4934225;29;20277;-81
2022/11/05 12:19:18;;;;;;;12.40;5.30;;;12.30;99.90;;;;;;4934575;29;20190;-80
2022/11/05 12:21:54;;;;;;;9.37;3.53;;;12.40;99.90;;;;;;4934755;29;20187;-81
2022/11/05 12:24:47;;;;;;;11.60;3.53;;;12.30;1.00;;;;;;4934459;29;20644;-81
2022/11/05 12:27:24;;;;;;;5.83;2.93;;;12.40;1.00;;;;;;4929362;29;20574;-81
2022/11/05 12:29:59;;;;;;;12.77;5.63;;;12.40;1.00;;;;;;4934366;29;20212;-82
2022/11/05 12:32:49;;;;;;;19.43;7.60;;;12.40;1.00;;;;;;4934305;29;20213;-81
2022/11/05 12:35:40;;;;;;;13.63;6.93;;;12.30;1.00;;;;;;4934644;29;20186;-80
2022/11/05 12:38:17;;;;;;;6.90;2.73;;;12.30;1.00;;;;;;4934087;29;20235;-80
2022/11/05 12:40:57;;;;;;;11.70;5.23;;;12.30;1.00;;;;;;4937043;29;20628;-80
2022/11/05 12:43:33;;;;;;;10.47;4.90;;;12.30;1.00;;;;;;4938022;29;20524;-80
2022/11/05 12:46:08;;;;;;;11.93;5.70;;;12.20;99.90;;;;;;4937808;29;20194;-81
2022/11/05 12:48:57;;;;;;;10.13;4.90;;;12.20;99.90;;;;;;4937654;29;20181;-81
2022/11/05 12:51:40;;;;;;;10.50;4.00;;;12.20;99.90;;;;;;4937542;29;20197;-81
2022/11/05 12:54:19;;;;;;;10.63;6.17;;;12.10;1.00;;;;;;4937550;29;20737;-80
2022/11/05 12:56:49;;;;;;;17.03;7.90;;;12.20;1.00;;;;;;4937836;29;20187;-80
2022/11/05 12:59:22;;;;;;;9.53;4.20;;;12.20;99.90;;;;;;4937462;29;20238;-80
2022/11/05 13:02:02;;;;;;;10.23;5.10;;;12.10;1.00;;;;;;4937433;29;20181;-82
2022/11/05 13:04:39;;;;;;;10.20;6.33;;;12.10;99.90;;;;;;4937354;29;20184;-81
2022/11/05 13:07:12;;;;;;;34.67;19.57;;;12.00;9.00;;;;;;4937457;29;20189;-81
2022/11/05 13:09:45;;;;;;;20.03;9.73;;;12.10;1.00;;;;;;4937333;29;20187;-81
2022/11/05 13:12:15;;;;;;;32.67;16.77;;;12.20;1.00;;;;;;4937649;29;20194;-80
2022/11/05 13:14:47;;;;;;;7.23;2.13;;;12.20;99.90;;;;;;4937669;29;20218;-80
2022/11/05 13:17:17;;;;;;;7.17;4.00;;;12.20;1.00;;;;;;4937319;29;20282;-81
2022/11/05 13:19:51;;;;;;;14.40;5.97;;;12.20;1.00;;;;;;4937588;29;20197;-83
2022/11/05 13:22:34;;;;;;;29.53;16.43;;;12.20;1.00;;;;;;4937087;29;20256;-81
2022/11/05 13:25:10;;;;;;;17.13;9.73;;;12.20;6.80;;;;;;4937027;29;20186;-82
2022/11/05 13:27:56;;;;;;;18.40;10.17;;;12.20;99.90;;;;;;4937005;29;20287;-82
2022/11/05 13:30:26;;;;;;;15.50;9.57;;;12.20;1.00;;;;;;4936923;29;20182;-83
2022/11/05 13:32:56;;;;;;;9.97;4.43;;;12.20;1.00;;;;;;4937411;29;20227;-82
2022/11/05 13:35:28;;;;;;;6.33;2.37;;;12.20;1.00;;;;;;4936408;29;20643;-82
2022/11/05 13:41:02;;;;;;;9.30;2.40;;;12.20;34.00;;;;;;4936817;29;20189;-81
2022/11/05 13:43:48;;;;;;;6.40;2.23;;;12.20;1.00;;;;;;4936980;29;20185;-81
2022/11/05 13:46:47;;;;;;;5.37;2.37;;;12.10;1.00;;;;;;4936930;29;20198;-82